Alpine Marie — H3UD — position and weather

sailwx.info

Track history (hours):
 
Tides and Currents Weather Stations Pressure Air Temp Water Temp Dewpoint Dewpoint Depression Visibility Wind Speed Wind Dir Waves Ship Positions

Alpine Marie

Last reported at 2015-Apr-14 05:29 UTC. Time now 2015-Apr-25 04:24 UTC.
Position N 34°38' E 139°43'.
Warning: this ship's position is 10 days out of date.

Length 172 m; draft 11.9 m.

Type: Tanker. MMSI: 353172000.

Date/timePositionNaut miles runAvg speedWind from/ knotsBaromVisibWave heightAir tempDewpointWater temp
2015-Apr-14 05:29N 34°38' E 139°43'1313.6
2015-Apr-14 04:32N 34°50' E 139°38'1212.9
2015-Apr-14 03:34N 35°02' E 139°43'1111.2
2015-Apr-14 02:34N 35°13' E 139°46'1111.5
2015-Apr-14 01:33N 35°24' E 139°43'1211.9
2015-Apr-14 00:34N 35°30' E 139°55'5 4.2
2015-Apr-13 23:29N 35°29' E 140°00'0 0.0
2015-Apr-13 22:29N 35°29' E 140°00'0 0.0
2015-Apr-13 21:23N 35°29' E 140°00'0 0.0
2015-Apr-13 20:29N 35°29' E 140°00'0 0.0
2015-Apr-13 19:11N 35°29' E 140°00'0 0.0
2015-Apr-13 18:29N 35°29' E 140°00'0 0.0
2015-Apr-13 17:23N 35°29' E 140°00'0 0.0
2015-Apr-13 16:17N 35°29' E 140°00'0 0.0
2015-Apr-13 15:29N 35°29' E 140°00'0 0.0
2015-Apr-13 14:29N 35°29' E 140°00'0 0.0
2015-Apr-13 13:17N 35°29' E 140°00'0 0.0
2015-Apr-13 12:23N 35°29' E 140°00'0 0.0
2015-Apr-13 11:23N 35°29' E 140°00'0 0.0
2015-Apr-13 10:17N 35°29' E 140°00'0 0.0
2015-Apr-13 09:29N 35°29' E 140°00'0 0.0
2015-Apr-13 08:23N 35°29' E 140°00'0 0.0
2015-Apr-13 07:29N 35°29' E 140°00'0 0.0
2015-Apr-13 06:23N 35°29' E 140°00'0 0.0
2015-Apr-13 05:23N 35°29' E 140°00'0 0.0
2015-Apr-13 04:29N 35°29' E 140°00'0 0.0
2015-Apr-13 03:23N 35°29' E 140°00'0 0.0
2015-Apr-13 02:23N 35°29' E 140°00'0 0.0
2015-Apr-13 01:17N 35°29' E 140°00'3 4.6
2015-Apr-13 00:33N 35°32' E 139°59'0 0.2
2015-Apr-12 23:32N 35°32' E 139°59'0 0.0
2015-Apr-12 22:32N 35°32' E 139°59'0 0.0
2015-Apr-12 21:26N 35°32' E 139°59'0 0.0
2015-Apr-12 20:32N 35°32' E 139°59'0 0.0
2015-Apr-12 19:32N 35°32' E 139°59'0 0.0
2015-Apr-12 18:29N 35°32' E 139°59'0 0.0
2015-Apr-12 17:31N 35°32' E 139°59'0 0.0
2015-Apr-12 16:20N 35°32' E 139°59'0 0.0
2015-Apr-12 15:32N 35°32' E 139°59'0 0.0
2015-Apr-12 14:19N 35°32' E 139°59'0 0.0
2015-Apr-12 13:26N 35°32' E 139°59'0 0.0
2015-Apr-12 12:31N 35°32' E 139°59'0 0.0
2015-Apr-12 11:32N 35°32' E 139°59'0 0.1
2015-Apr-12 10:31N 35°32' E 139°59'0 0.0
2015-Apr-12 09:20N 35°32' E 139°59'0 0.0
2015-Apr-12 08:25N 35°32' E 139°59'0 0.0
2015-Apr-12 07:26N 35°32' E 139°59'0 0.0
2015-Apr-12 06:32N 35°32' E 139°59'0 0.0
2015-Apr-12 05:14N 35°32' E 139°59'0 0.2
2015-Apr-12 04:33N 35°32' E 139°59'8 8.0
2015-Apr-12 03:33N 35°28' E 139°51'1111.0
2015-Apr-12 02:33N 35°18' E 139°45'9 9.1
2015-Apr-12 01:33N 35°09' E 139°46'5 5.3
2015-Apr-12 00:33N 35°05' E 139°42'4 4.3
2015-Apr-11 23:33N 35°03' E 139°37'1110.6
2015-Apr-11 22:33N 34°59' E 139°25'7211.1
2015-Apr-11 16:07N 34°16' E 138°16'  
Track history (hours):
 
Tides and Currents Weather Stations Pressure Air Temp Water Temp Dewpoint Dewpoint Depression Visibility Wind Speed Wind Dir Waves Ship Positions

Alpine Marie

Last reported at 2015-Apr-14 05:29 UTC. Time now 2015-Apr-25 04:24 UTC.
Position N 34°38' E 139°43'.
Warning: this ship's position is 10 days out of date.

Length 172 m; draft 11.9 m.

Type: Tanker. MMSI: 353172000.

Date/timePositionNaut miles runAvg speedWind from/ knotsBaromVisibWave heightAir tempDewpointWater temp
2015-Apr-14 05:29N 34°38' E 139°43'1313.6
2015-Apr-14 04:32N 34°50' E 139°38'1212.9
2015-Apr-14 03:34N 35°02' E 139°43'1111.2
2015-Apr-14 02:34N 35°13' E 139°46'1111.5
2015-Apr-14 01:33N 35°24' E 139°43'1211.9
2015-Apr-14 00:34N 35°30' E 139°55'5 4.2
2015-Apr-13 23:29N 35°29' E 140°00'0 0.0
2015-Apr-13 22:29N 35°29' E 140°00'0 0.0
2015-Apr-13 21:23N 35°29' E 140°00'0 0.0
2015-Apr-13 20:29N 35°29' E 140°00'0 0.0
2015-Apr-13 19:11N 35°29' E 140°00'0 0.0
2015-Apr-13 18:29N 35°29' E 140°00'0 0.0
2015-Apr-13 17:23N 35°29' E 140°00'0 0.0
2015-Apr-13 16:17N 35°29' E 140°00'0 0.0
2015-Apr-13 15:29N 35°29' E 140°00'0 0.0
2015-Apr-13 14:29N 35°29' E 140°00'0 0.0
2015-Apr-13 13:17N 35°29' E 140°00'0 0.0
2015-Apr-13 12:23N 35°29' E 140°00'0 0.0
2015-Apr-13 11:23N 35°29' E 140°00'0 0.0
2015-Apr-13 10:17N 35°29' E 140°00'0 0.0
2015-Apr-13 09:29N 35°29' E 140°00'0 0.0
2015-Apr-13 08:23N 35°29' E 140°00'0 0.0
2015-Apr-13 07:29N 35°29' E 140°00'0 0.0
2015-Apr-13 06:23N 35°29' E 140°00'0 0.0
2015-Apr-13 05:23N 35°29' E 140°00'0 0.0
2015-Apr-13 04:29N 35°29' E 140°00'0 0.0
2015-Apr-13 03:23N 35°29' E 140°00'0 0.0
2015-Apr-13 02:23N 35°29' E 140°00'0 0.0
2015-Apr-13 01:17N 35°29' E 140°00'3 4.6
2015-Apr-13 00:33N 35°32' E 139°59'0 0.2
2015-Apr-12 23:32N 35°32' E 139°59'0 0.0
2015-Apr-12 22:32N 35°32' E 139°59'0 0.0
2015-Apr-12 21:26N 35°32' E 139°59'0 0.0
2015-Apr-12 20:32N 35°32' E 139°59'0 0.0
2015-Apr-12 19:32N 35°32' E 139°59'0 0.0
2015-Apr-12 18:29N 35°32' E 139°59'0 0.0
2015-Apr-12 17:31N 35°32' E 139°59'0 0.0
2015-Apr-12 16:20N 35°32' E 139°59'0 0.0
2015-Apr-12 15:32N 35°32' E 139°59'0 0.0
2015-Apr-12 14:19N 35°32' E 139°59'0 0.0
2015-Apr-12 13:26N 35°32' E 139°59'0 0.0
2015-Apr-12 12:31N 35°32' E 139°59'0 0.0
2015-Apr-12 11:32N 35°32' E 139°59'0 0.1
2015-Apr-12 10:31N 35°32' E 139°59'0 0.0
2015-Apr-12 09:20N 35°32' E 139°59'0 0.0
2015-Apr-12 08:25N 35°32' E 139°59'0 0.0
2015-Apr-12 07:26N 35°32' E 139°59'0 0.0
2015-Apr-12 06:32N 35°32' E 139°59'0 0.0
2015-Apr-12 05:14N 35°32' E 139°59'0 0.2
2015-Apr-12 04:33N 35°32' E 139°59'8 8.0
2015-Apr-12 03:33N 35°28' E 139°51'1111.0
2015-Apr-12 02:33N 35°18' E 139°45'9 9.1
2015-Apr-12 01:33N 35°09' E 139°46'5 5.3
2015-Apr-12 00:33N 35°05' E 139°42'4 4.3
2015-Apr-11 23:33N 35°03' E 139°37'1110.6
2015-Apr-11 22:33N 34°59' E 139°25'7211.1
2015-Apr-11 16:07N 34°16' E 138°16'  

Dump ship's entire track history